createdAt,value
2023-05-20T00:01:17.535Z,12.40
2023-05-20T00:03:46.470Z,12.40
2023-05-20T00:06:17.016Z,12.40
2023-05-20T00:08:44.808Z,12.40
2023-05-20T00:11:12.587Z,12.30
2023-05-20T00:13:40.536Z,12.30
2023-05-20T00:16:08.829Z,12.30
2023-05-20T00:18:36.600Z,12.30
2023-05-20T00:21:04.451Z,12.20
2023-05-20T00:23:33.542Z,12.30
2023-05-20T00:26:02.651Z,12.20
2023-05-20T00:28:30.689Z,12.20
2023-05-20T00:30:58.535Z,12.20
2023-05-20T00:33:26.321Z,12.20
2023-05-20T00:35:54.058Z,12.20
2023-05-20T00:38:21.883Z,12.20
2023-05-20T00:40:50.997Z,12.20
2023-05-20T00:43:20.367Z,12.20
2023-05-20T00:45:48.912Z,12.20
2023-05-20T00:48:17.071Z,12.20
2023-05-20T00:50:45.098Z,12.20
2023-05-20T00:53:13.278Z,12.20
2023-05-20T00:55:41.296Z,12.10
2023-05-20T00:58:10.704Z,12.20
2023-05-20T01:00:38.755Z,12.20
2023-05-20T01:03:07.183Z,12.20
2023-05-20T01:05:35.162Z,12.10
2023-05-20T01:08:03.321Z,12.10
2023-05-20T01:10:32.328Z,12.10
2023-05-20T01:13:06.167Z,12.10
2023-05-20T01:15:36.745Z,12.10
2023-05-20T01:18:07.480Z,12.10
2023-05-20T01:20:37.211Z,12.10
2023-05-20T01:23:06.397Z,12.10
2023-05-20T01:25:34.596Z,12.10
2023-05-20T01:28:02.988Z,12.10
2023-05-20T01:30:35.530Z,12.10
2023-05-20T01:33:08.481Z,12.10
2023-05-20T01:35:37.057Z,12.00
2023-05-20T01:38:08.244Z,12.00
2023-05-20T01:40:36.656Z,12.00
2023-05-20T01:43:06.155Z,12.00
2023-05-20T01:45:34.602Z,12.00
2023-05-20T01:48:03.815Z,12.00
2023-05-20T01:50:31.584Z,12.00
2023-05-20T01:52:59.424Z,11.90
2023-05-20T01:55:28.827Z,11.90
2023-05-20T01:57:56.648Z,11.90
2023-05-20T02:00:24.566Z,11.90
2023-05-20T02:02:52.423Z,11.80
2023-05-20T02:05:20.475Z,11.80
2023-05-20T02:07:48.285Z,11.80
2023-05-20T02:10:16.183Z,11.80
2023-05-20T02:12:46.281Z,11.80
2023-05-20T02:15:14.018Z,11.80
2023-05-20T02:17:43.648Z,11.80
2023-05-20T02:20:12.323Z,11.80
2023-05-20T02:22:40.430Z,11.70
2023-05-20T02:25:09.342Z,11.70
2023-05-20T02:27:37.194Z,11.70
2023-05-20T02:30:08.322Z,11.70
2023-05-20T02:32:36.178Z,11.60
2023-05-20T02:35:04.045Z,11.60
2023-05-20T02:37:31.818Z,11.60
2023-05-20T02:39:59.596Z,11.60
2023-05-20T02:42:27.398Z,11.60
2023-05-20T02:44:58.410Z,11.50
2023-05-20T02:47:28.585Z,11.50
2023-05-20T02:49:56.547Z,11.50
2023-05-20T02:52:24.709Z,11.50
2023-05-20T02:54:53.039Z,11.40
2023-05-20T02:57:21.088Z,11.40
2023-05-20T02:59:48.854Z,11.40
2023-05-20T03:02:16.715Z,11.40
2023-05-20T03:04:47.246Z,11.30
2023-05-20T03:07:17.641Z,11.30
2023-05-20T03:09:45.854Z,11.30
2023-05-20T03:12:13.611Z,11.30
2023-05-20T03:14:41.564Z,11.40
2023-05-20T03:17:09.849Z,11.30
2023-05-20T03:19:37.598Z,11.30
2023-05-20T03:22:07.096Z,11.30
2023-05-20T03:24:34.853Z,11.30
2023-05-20T03:27:02.627Z,11.30
2023-05-20T03:29:31.393Z,11.30
2023-05-20T03:31:59.142Z,11.30
2023-05-20T03:34:28.132Z,11.30
2023-05-20T03:36:55.950Z,11.30
2023-05-20T03:39:25.066Z,11.40
2023-05-20T03:41:52.836Z,11.40
2023-05-20T03:44:20.844Z,11.40
2023-05-20T03:46:48.612Z,11.40
2023-05-20T03:49:16.447Z,11.40
2023-05-20T03:51:44.247Z,11.50
2023-05-20T03:54:12.254Z,11.50
2023-05-20T03:56:41.343Z,11.60
2023-05-20T03:59:09.828Z,11.60
2023-05-20T04:01:38.049Z,11.70
2023-05-20T04:04:06.026Z,11.70
2023-05-20T04:06:34.016Z,11.80
2023-05-20T04:09:01.787Z,11.80
2023-05-20T04:11:29.602Z,11.90
2023-05-20T04:14:00.482Z,11.90
2023-05-20T04:16:29.393Z,11.90
2023-05-20T04:18:59.195Z,12.00
2023-05-20T04:21:27.330Z,12.00
2023-05-20T04:23:55.344Z,12.00
2023-05-20T04:26:23.077Z,12.00
2023-05-20T04:28:51.264Z,12.00
2023-05-20T04:31:21.153Z,12.00
2023-05-20T04:33:49.202Z,12.00
2023-05-20T04:36:17.511Z,12.00
2023-05-20T04:38:45.474Z,12.00
2023-05-20T04:41:13.309Z,12.00
2023-05-20T04:43:41.052Z,12.00
2023-05-20T04:46:09.657Z,12.00
2023-05-20T04:48:38.868Z,12.00
2023-05-20T04:51:06.695Z,12.00
2023-05-20T04:53:36.019Z,12.00
2023-05-20T04:56:04.321Z,12.10
2023-05-20T04:58:33.434Z,12.10
2023-05-20T05:01:01.561Z,12.10
2023-05-20T05:03:29.596Z,12.10
2023-05-20T05:05:59.486Z,12.10
2023-05-20T05:08:27.375Z,12.10
2023-05-20T05:10:55.161Z,12.20
2023-05-20T05:13:22.946Z,12.20
2023-05-20T05:15:58.910Z,12.20
2023-05-20T05:18:27.015Z,12.30
2023-05-20T05:21:01.928Z,12.30
2023-05-20T05:23:30.002Z,12.30
2023-05-20T05:25:57.994Z,12.30
2023-05-20T05:28:26.453Z,12.40
2023-05-20T05:30:55.967Z,12.40
2023-05-20T05:33:24.022Z,12.50
2023-05-20T05:35:52.484Z,12.60
2023-05-20T05:38:21.719Z,12.60
2023-05-20T05:40:49.470Z,12.70
2023-05-20T05:43:17.237Z,12.80
2023-05-20T05:45:45.145Z,12.80
2023-05-20T05:48:16.029Z,12.90
2023-05-20T05:50:45.977Z,12.90
2023-05-20T05:53:17.921Z,13.00
2023-05-20T05:55:48.537Z,13.00
2023-05-20T05:58:16.454Z,13.10
2023-05-20T06:00:44.477Z,13.20
2023-05-20T06:03:12.417Z,13.20
2023-05-20T06:05:41.571Z,13.30
2023-05-20T06:08:09.320Z,13.30
2023-05-20T06:10:37.217Z,13.40
2023-05-20T06:13:06.671Z,13.50
2023-05-20T06:15:34.830Z,13.50
2023-05-20T06:18:03.009Z,13.60
2023-05-20T06:20:30.815Z,13.60
2023-05-20T06:22:58.620Z,13.60
2023-05-20T06:25:26.965Z,13.60
2023-05-20T06:27:54.764Z,13.70
2023-05-20T06:30:24.039Z,13.70
2023-05-20T06:32:51.897Z,13.70
2023-05-20T06:35:19.730Z,13.70
2023-05-20T06:37:47.563Z,13.80
2023-05-20T06:40:15.662Z,13.80
2023-05-20T06:43:06.455Z,13.90
2023-05-20T06:45:35.882Z,13.90
2023-05-20T06:48:03.793Z,14.00
2023-05-20T06:50:31.800Z,14.10
2023-05-20T06:53:01.358Z,14.20
2023-05-20T06:55:29.161Z,14.20
2023-05-20T06:57:57.299Z,14.30
2023-05-20T07:00:25.129Z,14.40
2023-05-20T07:02:54.498Z,14.50
2023-05-20T07:05:22.304Z,14.50
2023-05-20T07:07:50.388Z,14.60
2023-05-20T07:10:18.245Z,14.70
2023-05-20T07:12:46.030Z,14.80
2023-05-20T07:15:13.902Z,14.80
2023-05-20T07:17:41.718Z,14.90
2023-05-20T07:20:11.521Z,14.90
2023-05-20T07:22:39.259Z,15.00
2023-05-20T07:25:08.187Z,15.10
2023-05-20T07:27:36.253Z,15.10
2023-05-20T07:30:04.646Z,15.20
2023-05-20T07:32:32.527Z,15.20
2023-05-20T07:35:00.298Z,15.30
2023-05-20T07:37:29.397Z,15.40
2023-05-20T07:39:57.158Z,15.40
2023-05-20T07:42:24.906Z,15.50
2023-05-20T07:44:52.654Z,15.50
2023-05-20T07:47:20.443Z,15.60
2023-05-20T07:49:48.302Z,15.60
2023-05-20T07:52:16.869Z,15.60
2023-05-20T07:54:49.847Z,15.70
2023-05-20T07:57:18.513Z,15.70
2023-05-20T07:59:46.579Z,15.80
2023-05-20T08:02:16.234Z,15.80
2023-05-20T08:04:44.616Z,15.80
2023-05-20T08:07:12.970Z,15.80
2023-05-20T08:09:41.391Z,15.80
2023-05-20T08:12:10.644Z,15.90
2023-05-20T08:14:38.893Z,16.00
2023-05-20T08:17:07.154Z,16.00
2023-05-20T08:19:35.123Z,16.00
2023-05-20T08:22:03.417Z,16.10
2023-05-20T08:24:31.412Z,16.10
2023-05-20T08:26:59.400Z,16.20
2023-05-20T08:29:28.738Z,16.30
2023-05-20T08:31:56.502Z,16.40
2023-05-20T08:34:24.303Z,16.50
2023-05-20T08:36:52.679Z,16.50
2023-05-20T08:39:20.434Z,16.60
2023-05-20T08:41:48.739Z,16.70
2023-05-20T08:44:20.430Z,16.90
2023-05-20T08:46:50.799Z,17.00
2023-05-20T08:49:18.747Z,17.10
2023-05-20T08:51:48.301Z,17.20
2023-05-20T08:54:17.725Z,17.30
2023-05-20T08:56:45.914Z,17.40
2023-05-20T08:59:13.726Z,17.40
2023-05-20T09:01:44.371Z,17.50
2023-05-20T09:04:13.644Z,17.50
2023-05-20T09:06:44.772Z,17.60
2023-05-20T09:09:13.424Z,17.70
2023-05-20T09:11:41.869Z,17.80
2023-05-20T09:14:09.840Z,17.90
2023-05-20T09:16:37.668Z,18.00
2023-05-20T09:19:07.349Z,18.10
2023-05-20T09:21:37.422Z,18.10
2023-05-20T09:24:05.635Z,18.10
2023-05-20T09:26:33.405Z,18.20
2023-05-20T09:29:01.548Z,18.10
2023-05-20T09:31:29.450Z,18.20
2023-05-20T09:33:57.966Z,18.10
2023-05-20T09:36:29.566Z,18.00
2023-05-20T09:39:05.084Z,17.90
2023-05-20T09:41:35.745Z,17.80
2023-05-20T09:44:04.046Z,17.70
2023-05-20T09:46:32.722Z,17.60
2023-05-20T09:49:01.157Z,17.50
2023-05-20T09:51:29.927Z,17.40
2023-05-20T09:53:59.738Z,17.50
2023-05-20T09:56:29.344Z,17.60
2023-05-20T09:58:59.773Z,17.70
2023-05-20T10:01:27.752Z,17.70
2023-05-20T10:03:55.757Z,17.70
2023-05-20T10:06:52.048Z,17.70
2023-05-20T10:09:33.513Z,17.70
2023-05-20T10:12:12.817Z,17.70
2023-05-20T10:14:49.153Z,17.80
2023-05-20T10:17:22.677Z,17.90
2023-05-20T10:19:51.152Z,18.00
2023-05-20T10:22:29.074Z,18.00
2023-05-20T10:25:01.997Z,18.00
2023-05-20T10:27:29.833Z,18.00
2023-05-20T10:29:58.386Z,18.00
2023-05-20T10:32:27.492Z,18.00
2023-05-20T10:35:00.673Z,18.00
2023-05-20T10:37:29.995Z,18.00
2023-05-20T10:40:10.528Z,18.00
2023-05-20T10:42:38.489Z,18.00
2023-05-20T10:45:08.098Z,18.00
2023-05-20T10:47:36.748Z,18.00
2023-05-20T10:50:06.103Z,18.10
2023-05-20T10:52:35.198Z,18.20
2023-05-20T10:55:05.125Z,18.40
2023-05-20T10:57:35.631Z,18.30
2023-05-20T11:00:10.817Z,18.30
2023-05-20T11:02:39.268Z,18.30
2023-05-20T11:05:11.871Z,18.20
2023-05-20T11:07:39.624Z,18.20
2023-05-20T11:10:10.613Z,18.20
2023-05-20T11:12:40.965Z,18.20
2023-05-20T11:15:12.244Z,18.20
2023-05-20T11:17:40.005Z,18.20
2023-05-20T11:20:10.364Z,18.10
2023-05-20T11:22:38.179Z,18.10
2023-05-20T11:25:07.313Z,18.00
2023-05-20T11:27:35.139Z,17.90
2023-05-20T11:30:05.821Z,17.90
2023-05-20T11:32:33.596Z,17.90
2023-05-20T11:35:01.656Z,17.90
2023-05-20T11:37:30.405Z,17.90
2023-05-20T11:40:07.842Z,17.90
2023-05-20T11:42:36.370Z,18.00
2023-05-20T11:45:06.574Z,18.00
2023-05-20T11:47:34.425Z,18.00
2023-05-20T11:50:02.898Z,18.00
2023-05-20T11:52:30.786Z,17.90
2023-05-20T11:54:58.554Z,17.90
2023-05-20T11:57:26.293Z,18.00
2023-05-20T11:59:54.294Z,18.00
2023-05-20T12:02:23.540Z,17.90
2023-05-20T12:04:51.769Z,18.00
2023-05-20T12:07:19.952Z,18.10
2023-05-20T12:09:47.728Z,18.20
2023-05-20T12:12:16.477Z,18.30
2023-05-20T12:14:44.235Z,18.40
2023-05-20T12:17:12.063Z,18.50
2023-05-20T12:19:42.205Z,18.50
2023-05-20T12:22:10.092Z,18.50
2023-05-20T12:24:37.886Z,18.50
2023-05-20T12:27:06.390Z,18.50
2023-05-20T12:29:34.500Z,18.50
2023-05-20T12:32:02.326Z,18.60
2023-05-20T12:34:30.498Z,18.80
2023-05-20T12:36:59.707Z,18.90
2023-05-20T12:39:27.757Z,18.90
2023-05-20T12:41:55.492Z,19.00
2023-05-20T12:44:23.287Z,19.00
2023-05-20T12:46:51.278Z,19.00
2023-05-20T12:49:19.023Z,18.90
2023-05-20T12:51:46.798Z,18.90
2023-05-20T12:54:16.405Z,18.90
2023-05-20T12:56:47.326Z,18.90
2023-05-20T12:59:15.092Z,18.90
2023-05-20T13:01:42.945Z,18.90
2023-05-20T13:04:11.001Z,19.00
2023-05-20T13:06:38.828Z,19.00
2023-05-20T13:09:06.806Z,19.00
2023-05-20T13:11:35.864Z,19.10
2023-05-20T13:14:03.658Z,19.10
2023-05-20T13:16:31.845Z,19.10
2023-05-20T13:18:59.669Z,19.10
2023-05-20T13:21:27.581Z,19.10
2023-05-20T13:23:55.471Z,19.10
2023-05-20T13:26:23.497Z,19.10
2023-05-20T13:28:52.608Z,19.10
2023-05-20T13:31:20.447Z,19.10
2023-05-20T13:33:48.247Z,19.10
2023-05-20T13:36:16.008Z,19.10
2023-05-20T13:38:44.271Z,19.00
2023-05-20T13:41:12.241Z,19.00
2023-05-20T13:43:42.109Z,19.00
2023-05-20T13:46:11.348Z,18.90
2023-05-20T13:48:39.167Z,18.90
2023-05-20T13:51:07.256Z,18.90
2023-05-20T13:53:35.048Z,18.90
2023-05-20T13:56:03.149Z,18.80
2023-05-20T13:58:31.027Z,18.90
2023-05-20T14:01:00.253Z,18.90
2023-05-20T14:03:29.749Z,18.90
2023-05-20T14:05:58.140Z,18.90
2023-05-20T14:08:26.073Z,18.90
2023-05-20T14:10:54.941Z,18.80
2023-05-20T14:13:23.184Z,18.70
2023-05-20T14:15:51.575Z,18.70
2023-05-20T14:18:19.764Z,18.70
2023-05-20T14:20:49.316Z,18.70
2023-05-20T14:23:17.367Z,18.80
2023-05-20T14:25:45.186Z,18.80
2023-05-20T14:28:12.994Z,18.90
2023-05-20T14:30:40.771Z,18.80
2023-05-20T14:33:08.652Z,18.80
2023-05-20T14:35:36.424Z,18.80
2023-05-20T14:38:05.471Z,18.70
2023-05-20T14:40:33.320Z,18.70
2023-05-20T14:43:01.285Z,18.70
2023-05-20T14:45:29.074Z,18.60
2023-05-20T14:47:56.820Z,18.70
2023-05-20T14:50:24.623Z,18.70
2023-05-20T14:52:52.385Z,18.70
2023-05-20T14:55:22.203Z,18.80
2023-05-20T14:57:50.178Z,18.70
2023-05-20T15:00:18.193Z,18.80
2023-05-20T15:02:46.121Z,18.70
2023-05-20T15:05:13.876Z,18.70
2023-05-20T15:07:42.030Z,18.70
2023-05-20T15:10:10.344Z,18.80
2023-05-20T15:12:39.484Z,18.90
2023-05-20T15:15:08.164Z,18.90
2023-05-20T15:17:35.988Z,18.80
2023-05-20T15:20:04.233Z,18.80
2023-05-20T15:22:32.062Z,18.80
2023-05-20T15:24:59.844Z,18.90
2023-05-20T15:27:27.605Z,18.80
2023-05-20T15:29:56.684Z,18.80
2023-05-20T15:32:24.571Z,18.80
2023-05-20T15:34:52.465Z,18.80
2023-05-20T15:37:20.241Z,18.80
2023-05-20T15:39:48.013Z,18.90
2023-05-20T15:42:18.184Z,19.00
2023-05-20T15:44:46.059Z,19.00
2023-05-20T15:47:15.239Z,19.00
2023-05-20T15:49:43.269Z,19.00
2023-05-20T15:52:11.172Z,18.90
2023-05-20T15:54:38.878Z,18.90
2023-05-20T15:57:06.893Z,18.80
2023-05-20T15:59:34.658Z,18.80
2023-05-20T16:02:02.407Z,18.80
2023-05-20T16:04:32.575Z,18.70
2023-05-20T16:07:00.657Z,18.70
2023-05-20T16:09:28.427Z,18.60
2023-05-20T16:11:56.279Z,18.50
2023-05-20T16:14:24.104Z,18.50
2023-05-20T16:16:51.950Z,18.30
2023-05-20T16:19:19.985Z,18.30
2023-05-20T16:21:49.178Z,18.20
2023-05-20T16:24:17.106Z,18.10
2023-05-20T16:26:44.993Z,18.00
2023-05-20T16:29:15.687Z,18.00
2023-05-20T16:31:46.422Z,18.00
2023-05-20T16:34:15.668Z,17.90
2023-05-20T16:36:45.250Z,17.90
2023-05-20T16:39:14.618Z,17.90
2023-05-20T16:41:42.783Z,17.80
2023-05-20T16:44:10.757Z,17.80
2023-05-20T16:46:38.534Z,17.80
2023-05-20T16:49:06.509Z,17.70
2023-05-20T16:51:34.364Z,17.80
2023-05-20T16:54:02.177Z,17.70
2023-05-20T16:56:31.393Z,17.70
2023-05-20T16:58:59.429Z,17.70
2023-05-20T17:01:28.897Z,17.60
2023-05-20T17:03:56.739Z,17.60
2023-05-20T17:06:24.788Z,17.60
2023-05-20T17:08:52.556Z,17.60
2023-05-20T17:11:20.735Z,17.60
2023-05-20T17:13:49.783Z,17.60
2023-05-20T17:16:17.603Z,17.50
2023-05-20T17:18:45.700Z,17.50
2023-05-20T17:21:15.701Z,17.40
2023-05-20T17:23:43.629Z,17.40
2023-05-20T17:26:11.360Z,17.40
2023-05-20T17:28:39.118Z,17.40
2023-05-20T17:31:08.897Z,17.40
2023-05-20T17:33:37.096Z,17.40
2023-05-20T17:36:05.544Z,17.30
2023-05-20T17:38:33.611Z,17.30
2023-05-20T17:41:01.638Z,17.30
2023-05-20T17:43:29.400Z,17.30
2023-05-20T17:45:57.308Z,17.30
2023-05-20T17:48:26.358Z,17.30
2023-05-20T17:50:54.099Z,17.30
2023-05-20T17:53:22.380Z,17.30
2023-05-20T17:55:50.535Z,17.30
2023-05-20T17:58:20.800Z,17.30
2023-05-20T18:00:48.667Z,17.20
2023-05-20T18:03:17.671Z,17.30
2023-05-20T18:05:47.634Z,17.30
2023-05-20T18:08:15.424Z,17.20
2023-05-20T18:10:43.219Z,17.10
2023-05-20T18:13:11.050Z,17.10
2023-05-20T18:15:39.004Z,17.10
2023-05-20T18:18:06.859Z,17.10
2023-05-20T18:20:34.976Z,17.10
2023-05-20T18:23:04.242Z,17.10
2023-05-20T18:25:32.052Z,17.00
2023-05-20T18:27:59.882Z,17.10
2023-05-20T18:30:27.755Z,17.00
2023-05-20T18:32:57.046Z,17.00
2023-05-20T18:35:24.895Z,17.00
2023-05-20T18:37:52.694Z,17.00
2023-05-20T18:40:22.057Z,17.00
2023-05-20T18:42:49.923Z,17.00
2023-05-20T18:45:17.787Z,16.90
2023-05-20T18:47:45.796Z,16.90
2023-05-20T18:50:13.639Z,16.90
2023-05-20T18:52:41.456Z,16.90
2023-05-20T18:55:09.778Z,16.80
2023-05-20T18:57:39.090Z,16.80
2023-05-20T19:00:12.127Z,16.80
2023-05-20T19:02:40.930Z,16.80
2023-05-20T19:05:10.201Z,16.70
2023-05-20T19:07:38.233Z,16.70
2023-05-20T19:10:07.161Z,16.70
2023-05-20T19:12:34.930Z,16.70
2023-05-20T19:15:05.125Z,16.70
2023-05-20T19:17:32.967Z,16.70
2023-05-20T19:20:00.754Z,16.60
2023-05-20T19:22:28.566Z,16.70
2023-05-20T19:24:56.404Z,16.60
2023-05-20T19:27:24.143Z,16.60
2023-05-20T19:29:52.010Z,16.50
2023-05-20T19:32:21.214Z,16.40
2023-05-20T19:34:48.957Z,16.40
2023-05-20T19:37:16.779Z,16.30
2023-05-20T19:39:44.655Z,16.20
2023-05-20T19:42:12.461Z,16.20
2023-05-20T19:44:40.297Z,16.10
2023-05-20T19:47:08.081Z,16.10
2023-05-20T19:49:37.192Z,16.00
2023-05-20T19:52:06.351Z,16.00
2023-05-20T19:54:34.394Z,16.00
2023-05-20T19:57:02.530Z,16.00
2023-05-20T19:59:30.817Z,15.90
2023-05-20T20:02:02.692Z,15.90
2023-05-20T20:04:30.563Z,15.90
2023-05-20T20:06:59.949Z,15.80
2023-05-20T20:09:28.108Z,15.90
2023-05-20T20:11:56.166Z,15.80
2023-05-20T20:14:23.932Z,15.80
2023-05-20T20:16:51.800Z,15.80
2023-05-20T20:19:22.848Z,15.80
2023-05-20T20:21:53.010Z,15.80
2023-05-20T20:24:22.135Z,15.80
2023-05-20T20:26:50.460Z,15.80
2023-05-20T20:29:18.171Z,15.80
2023-05-20T20:31:46.086Z,15.80
2023-05-20T20:34:13.867Z,15.80
2023-05-20T20:36:44.917Z,15.80
2023-05-20T20:39:18.794Z,15.80
2023-05-20T20:41:50.215Z,15.70
2023-05-20T20:44:22.305Z,15.70
2023-05-20T20:46:51.397Z,15.70
2023-05-20T20:49:19.642Z,15.70
2023-05-20T20:51:49.655Z,15.70
2023-05-20T20:54:17.684Z,15.70
2023-05-20T20:56:47.428Z,15.70
2023-05-20T20:59:15.647Z,15.60
2023-05-20T21:01:44.803Z,15.60
2023-05-20T21:04:13.978Z,15.60
2023-05-20T21:06:45.771Z,15.50
2023-05-20T21:09:13.925Z,15.50
2023-05-20T21:11:42.710Z,15.50
2023-05-20T21:14:12.796Z,15.50
2023-05-20T21:16:42.100Z,15.40
2023-05-20T21:19:10.067Z,15.50
2023-05-20T21:21:37.817Z,15.40
2023-05-20T21:24:05.904Z,15.40
2023-05-20T21:26:33.627Z,15.40
2023-05-20T21:29:01.386Z,15.40
2023-05-20T21:31:30.907Z,15.30
2023-05-20T21:33:58.782Z,15.30
2023-05-20T21:36:26.541Z,15.30
2023-05-20T21:38:54.317Z,15.30
2023-05-20T21:41:23.457Z,15.20
2023-05-20T21:43:51.484Z,15.20
2023-05-20T21:46:19.372Z,15.20
2023-05-20T21:48:48.463Z,15.10
2023-05-20T21:51:16.407Z,15.20
2023-05-20T21:53:44.152Z,15.10
2023-05-20T21:56:11.905Z,15.10
2023-05-20T21:58:41.839Z,15.10
2023-05-20T22:01:10.236Z,15.10
2023-05-20T22:03:39.749Z,15.10
2023-05-20T22:06:09.276Z,15.00
2023-05-20T22:08:37.083Z,15.00
2023-05-20T22:11:07.512Z,15.00
2023-05-20T22:13:36.510Z,15.00
2023-05-20T22:16:05.158Z,15.00
2023-05-20T22:18:33.367Z,14.90
2023-05-20T22:21:01.633Z,14.90
2023-05-20T22:23:30.731Z,14.80
2023-05-20T22:25:58.574Z,14.80
2023-05-20T22:28:26.399Z,14.90
2023-05-20T22:30:54.678Z,14.80
2023-05-20T22:33:24.380Z,14.80
2023-05-20T22:35:53.402Z,14.80
2023-05-20T22:38:21.359Z,14.80
2023-05-20T22:40:50.640Z,14.80
2023-05-20T22:43:18.365Z,14.80
2023-05-20T22:45:46.429Z,14.70
2023-05-20T22:48:14.281Z,14.70
2023-05-20T22:50:42.205Z,14.70
2023-05-20T22:53:09.961Z,14.70
2023-05-20T22:55:38.732Z,14.70
2023-05-20T22:58:08.580Z,14.70
2023-05-20T23:00:36.374Z,14.70
2023-05-20T23:03:04.261Z,14.70
2023-05-20T23:05:32.279Z,14.60
2023-05-20T23:08:00.234Z,14.60
2023-05-20T23:10:28.050Z,14.60
2023-05-20T23:12:55.812Z,14.60
2023-05-20T23:15:25.525Z,14.60
2023-05-20T23:17:53.406Z,14.60
2023-05-20T23:20:22.268Z,14.60
2023-05-20T23:22:50.050Z,14.60
2023-05-20T23:25:18.164Z,14.50
2023-05-20T23:27:45.958Z,14.50
2023-05-20T23:30:13.990Z,14.50
2023-05-20T23:32:43.483Z,14.50
2023-05-20T23:35:13.124Z,14.50
2023-05-20T23:37:41.334Z,14.40
2023-05-20T23:40:10.205Z,14.40
2023-05-20T23:42:38.071Z,14.40
2023-05-20T23:45:06.806Z,14.40
2023-05-20T23:47:36.425Z,14.40
2023-05-20T23:50:06.151Z,14.30
2023-05-20T23:52:34.039Z,14.30
2023-05-20T23:55:01.807Z,14.30
2023-05-20T23:57:29.606Z,14.20
2023-05-20T23:59:57.409Z,14.20
